createdAt,value
2023-03-10T00:00:01.190Z,97856.72
2023-03-10T00:02:03.698Z,97910.63
2023-03-10T00:04:06.116Z,97900.19
2023-03-10T00:06:10.867Z,97920.75
2023-03-10T00:08:13.154Z,97914.34
2023-03-10T00:10:16.959Z,97899.31
2023-03-10T00:12:19.324Z,97889.88
2023-03-10T00:14:22.029Z,97849.50
2023-03-10T00:16:27.943Z,97898.22
2023-03-10T00:18:30.292Z,97857.91
2023-03-10T00:20:32.786Z,97889.03
2023-03-10T00:22:39.338Z,97888.81
2023-03-10T00:24:41.692Z,97883.75
2023-03-10T00:26:45.760Z,97889.94
2023-03-10T00:28:49.473Z,97870.63
2023-03-10T00:30:59.042Z,97883.69
2023-03-10T00:33:02.919Z,97909.56
2023-03-10T00:35:07.149Z,97856.72
2023-03-10T00:37:10.233Z,97870.78
2023-03-10T00:39:12.432Z,97919.25
2023-03-10T00:41:19.912Z,97874.00
2023-03-10T00:43:22.247Z,97888.25
2023-03-10T00:45:25.280Z,97894.88
2023-03-10T00:47:27.552Z,97832.59
2023-03-10T00:49:31.093Z,97872.50
2023-03-10T00:51:34.309Z,97904.44
2023-03-10T00:53:39.060Z,97861.78
2023-03-10T00:55:41.457Z,97879.66
2023-03-10T00:57:44.729Z,97891.50
2023-03-10T00:59:51.889Z,97866.91
2023-03-10T01:01:55.016Z,97870.41
2023-03-10T01:04:00.846Z,97873.53
2023-03-10T01:06:03.363Z,97836.69
2023-03-10T01:08:05.855Z,97880.09
2023-03-10T01:10:08.732Z,97871.41
2023-03-10T01:12:10.926Z,97845.88
2023-03-10T01:14:15.717Z,97886.09
2023-03-10T01:16:18.701Z,97829.31
2023-03-10T01:18:22.012Z,97822.84
2023-03-10T01:20:24.290Z,97844.19
2023-03-10T01:22:26.730Z,97837.88
2023-03-10T01:24:29.263Z,97785.16
2023-03-10T01:26:32.294Z,97856.44
2023-03-10T01:28:34.624Z,97824.38
2023-03-10T01:30:40.131Z,97816.81
2023-03-10T01:32:42.471Z,97824.41
2023-03-10T01:34:45.003Z,97815.72
2023-03-10T01:36:47.180Z,97806.97
2023-03-10T01:38:50.315Z,97812.28
2023-03-10T01:40:53.644Z,97809.06
2023-03-10T01:43:16.494Z,97858.06
2023-03-10T01:45:19.265Z,97845.50
2023-03-10T01:47:21.845Z,97825.78
2023-03-10T01:49:35.197Z,97791.59
2023-03-10T01:51:40.315Z,97817.06
2023-03-10T01:53:43.655Z,97815.63
2023-03-10T01:55:50.599Z,97810.00
2023-03-10T01:57:56.904Z,97820.81
2023-03-10T02:00:00.946Z,97793.97
2023-03-10T02:02:07.496Z,97790.91
2023-03-10T02:04:17.014Z,97821.88
2023-03-10T02:06:21.385Z,97803.47
2023-03-10T02:08:31.540Z,97794.75
2023-03-10T02:10:33.987Z,97831.22
2023-03-10T02:12:37.063Z,97786.41
2023-03-10T02:14:40.319Z,97789.81
2023-03-10T02:16:42.637Z,97809.94
2023-03-10T02:18:48.656Z,97782.09
2023-03-10T02:21:27.542Z,97793.84
2023-03-10T02:24:00.322Z,97805.13
2023-03-10T02:26:18.393Z,97746.25
2023-03-10T02:28:21.030Z,97779.50
2023-03-10T02:30:29.028Z,97762.25
2023-03-10T02:32:35.421Z,97771.59
2023-03-10T02:34:38.635Z,97772.84
2023-03-10T02:36:41.054Z,97786.47
2023-03-10T02:38:43.515Z,97777.78
2023-03-10T02:40:51.691Z,97787.78
2023-03-10T02:43:07.413Z,97802.75
2023-03-10T02:45:10.001Z,97707.19
2023-03-10T02:47:12.820Z,97747.84
2023-03-10T02:49:17.840Z,97719.22
2023-03-10T02:51:24.197Z,97738.44
2023-03-10T02:53:30.278Z,97757.63
2023-03-10T02:55:32.592Z,97729.94
2023-03-10T02:57:36.274Z,97731.09
2023-03-10T02:59:38.701Z,97778.22
2023-03-10T03:01:41.111Z,97718.69
2023-03-10T03:03:43.499Z,97744.50
2023-03-10T03:05:47.823Z,97726.94
2023-03-10T03:07:50.297Z,97758.09
2023-03-10T03:09:53.701Z,97747.44
2023-03-10T03:11:56.225Z,97743.75
2023-03-10T03:13:59.444Z,97726.84
2023-03-10T03:16:02.500Z,97729.94
2023-03-10T03:18:05.867Z,97717.53
2023-03-10T03:20:14.606Z,97706.88
2023-03-10T03:22:19.500Z,97675.63
2023-03-10T03:24:22.168Z,97751.38
2023-03-10T03:26:27.359Z,97739.75
2023-03-10T03:28:45.884Z,97747.97
2023-03-10T03:30:49.278Z,97707.53
2023-03-10T03:32:53.675Z,97707.72
2023-03-10T03:34:56.963Z,97747.31
2023-03-10T03:36:59.644Z,97716.03
2023-03-10T03:39:07.817Z,97667.06
2023-03-10T03:41:11.952Z,97721.84
2023-03-10T03:43:15.056Z,97719.41
2023-03-10T03:45:20.828Z,97704.13
2023-03-10T03:47:23.390Z,97708.78
2023-03-10T03:49:25.807Z,97674.47
2023-03-10T03:51:28.546Z,97710.06
2023-03-10T03:53:34.754Z,97705.88
2023-03-10T03:55:38.348Z,97699.59
2023-03-10T03:57:42.238Z,97645.31
2023-03-10T03:59:44.705Z,97682.22
2023-03-10T04:01:47.685Z,97676.44
2023-03-10T04:03:50.833Z,97692.34
2023-03-10T04:05:53.942Z,97664.34
2023-03-10T04:07:57.366Z,97719.47
2023-03-10T04:10:01.115Z,97702.25
2023-03-10T04:12:03.552Z,97685.47
2023-03-10T04:14:07.084Z,97657.94
2023-03-10T04:16:10.215Z,97648.91
2023-03-10T04:18:14.969Z,97685.66
2023-03-10T04:20:18.774Z,97645.88
2023-03-10T04:22:25.120Z,97641.19
2023-03-10T04:24:28.162Z,97611.06
2023-03-10T04:26:30.829Z,97673.69
2023-03-10T04:28:33.358Z,97635.19
2023-03-10T04:30:35.634Z,97631.16
2023-03-10T04:32:38.892Z,97604.16
2023-03-10T04:34:41.239Z,97639.25
2023-03-10T04:36:43.548Z,97638.09
2023-03-10T04:38:45.992Z,97659.97
2023-03-10T04:40:55.533Z,97636.09
2023-03-10T04:43:00.153Z,97633.34
2023-03-10T04:45:03.060Z,97597.88
2023-03-10T04:47:05.923Z,97604.63
2023-03-10T04:49:08.513Z,97619.44
2023-03-10T04:51:12.272Z,97572.22
2023-03-10T04:53:21.361Z,97649.31
2023-03-10T04:55:23.908Z,97592.28
2023-03-10T04:57:26.219Z,97580.91
2023-03-10T04:59:29.511Z,97609.09
2023-03-10T05:01:33.547Z,97579.81
2023-03-10T05:03:39.726Z,97637.78
2023-03-10T05:05:44.287Z,97592.69
2023-03-10T05:07:48.790Z,97611.22
2023-03-10T05:09:51.400Z,97599.25
2023-03-10T05:11:54.030Z,97611.38
2023-03-10T05:13:56.504Z,97604.16
2023-03-10T05:15:58.993Z,97565.69
2023-03-10T05:18:01.381Z,97592.72
2023-03-10T05:20:05.320Z,97595.94
2023-03-10T05:22:11.414Z,97614.22
2023-03-10T05:24:14.044Z,97598.31
2023-03-10T05:26:17.418Z,97550.03
2023-03-10T05:28:20.448Z,97577.09
2023-03-10T05:30:23.082Z,97573.09
2023-03-10T05:32:29.854Z,97565.84
2023-03-10T05:34:33.305Z,97553.00
2023-03-10T05:36:38.189Z,97532.91
2023-03-10T05:38:42.628Z,97510.53
2023-03-10T05:40:48.750Z,97522.91
2023-03-10T05:42:51.706Z,97535.94
2023-03-10T05:44:56.453Z,97509.56
2023-03-10T05:46:59.288Z,97560.09
2023-03-10T05:49:01.599Z,97526.97
2023-03-10T05:51:10.106Z,97569.13
2023-03-10T05:53:13.652Z,97552.06
2023-03-10T05:55:20.154Z,97555.63
2023-03-10T05:57:23.202Z,97581.19
2023-03-10T05:59:27.248Z,97486.25
2023-03-10T06:01:31.125Z,97539.19
2023-03-10T06:03:34.188Z,97523.91
2023-03-10T06:05:36.677Z,97522.16
2023-03-10T06:07:39.492Z,97545.00
2023-03-10T06:09:41.804Z,97497.06
2023-03-10T06:11:44.230Z,97498.69
2023-03-10T06:13:46.806Z,97528.28
2023-03-10T06:15:51.186Z,97509.31
2023-03-10T06:17:53.806Z,97485.97
2023-03-10T06:19:56.398Z,97463.94
2023-03-10T06:21:58.896Z,97522.00
2023-03-10T06:24:01.496Z,97480.19
2023-03-10T06:26:10.222Z,97491.13
2023-03-10T06:28:12.731Z,97476.16
2023-03-10T06:30:16.153Z,97511.84
2023-03-10T06:32:18.605Z,97497.38
2023-03-10T06:34:21.409Z,97458.13
2023-03-10T06:36:26.408Z,97412.94
2023-03-10T06:38:28.882Z,97466.00
2023-03-10T06:40:31.209Z,97467.75
2023-03-10T06:42:33.692Z,97467.34
2023-03-10T06:44:36.629Z,97457.13
2023-03-10T06:46:39.236Z,97477.53
2023-03-10T06:48:43.172Z,97475.50
2023-03-10T06:50:50.674Z,97477.78
2023-03-10T06:52:53.517Z,97502.78
2023-03-10T06:54:55.872Z,97443.63
2023-03-10T06:56:58.463Z,97455.97
2023-03-10T06:59:01.617Z,97454.03
2023-03-10T07:01:06.392Z,97493.41
2023-03-10T07:03:11.754Z,97446.31
2023-03-10T07:05:14.659Z,97494.56
2023-03-10T07:07:17.044Z,97452.06
2023-03-10T07:09:19.482Z,97479.06
2023-03-10T07:11:22.994Z,97464.19
2023-03-10T07:13:25.539Z,97456.88
2023-03-10T07:15:28.440Z,97473.13
2023-03-10T07:17:30.915Z,97473.91
2023-03-10T07:19:33.512Z,97475.63
2023-03-10T07:21:35.711Z,97467.75
2023-03-10T07:23:39.762Z,97480.84
2023-03-10T07:25:42.350Z,97466.06
2023-03-10T07:27:44.750Z,97465.72
2023-03-10T07:29:47.314Z,97414.06
2023-03-10T07:31:49.898Z,97470.25
2023-03-10T07:33:52.618Z,97463.69
2023-03-10T07:35:55.259Z,97468.13
2023-03-10T07:37:57.690Z,97484.16
2023-03-10T07:40:00.118Z,97488.16
2023-03-10T07:42:02.476Z,97432.94
2023-03-10T07:44:07.872Z,97483.00
2023-03-10T07:46:13.603Z,97455.03
2023-03-10T07:48:15.866Z,97442.72
2023-03-10T07:50:19.458Z,97439.94
2023-03-10T07:52:22.089Z,97467.91
2023-03-10T07:54:24.735Z,97475.13
2023-03-10T07:56:27.536Z,97457.38
2023-03-10T07:58:30.019Z,97395.13
2023-03-10T08:00:32.329Z,97431.00
2023-03-10T08:02:35.015Z,97442.84
2023-03-10T08:04:38.386Z,97424.44
2023-03-10T08:06:41.515Z,97415.63
2023-03-10T08:08:43.899Z,97377.16
2023-03-10T08:10:46.239Z,97385.34
2023-03-10T08:12:48.625Z,97433.59
2023-03-10T08:14:51.619Z,97425.81
2023-03-10T08:16:56.926Z,97443.81
2023-03-10T08:18:59.442Z,97429.75
2023-03-10T08:21:05.854Z,97447.09
2023-03-10T08:23:08.567Z,97453.50
2023-03-10T08:25:13.117Z,97455.78
2023-03-10T08:27:15.359Z,97467.69
2023-03-10T08:29:18.135Z,97490.72
2023-03-10T08:31:21.571Z,97463.97
2023-03-10T08:33:23.987Z,97443.38
2023-03-10T08:35:26.745Z,97430.63
2023-03-10T08:37:29.424Z,97463.44
2023-03-10T08:39:32.526Z,97456.88
2023-03-10T08:41:37.775Z,97449.13
2023-03-10T08:43:40.965Z,97463.84
2023-03-10T08:45:43.525Z,97424.19
2023-03-10T08:47:46.297Z,97418.44
2023-03-10T08:49:49.050Z,97411.31
2023-03-10T08:51:51.589Z,97380.19
2023-03-10T08:53:54.239Z,97428.28
2023-03-10T08:55:56.817Z,97418.34
2023-03-10T08:57:59.407Z,97420.38
2023-03-10T09:00:02.565Z,97415.44
2023-03-10T09:02:05.497Z,97391.03
2023-03-10T09:04:10.854Z,97421.63
2023-03-10T09:06:14.724Z,97397.03
2023-03-10T09:08:17.358Z,97430.63
2023-03-10T09:10:19.910Z,97421.25
2023-03-10T09:12:23.040Z,97423.66
2023-03-10T09:14:26.070Z,97426.31
2023-03-10T09:16:29.511Z,97439.09
2023-03-10T09:18:32.046Z,97422.53
2023-03-10T09:20:36.261Z,97423.91
2023-03-10T09:22:38.946Z,97420.53
2023-03-10T09:24:41.623Z,97409.34
2023-03-10T09:26:44.791Z,97412.31
2023-03-10T09:28:50.053Z,97452.94
2023-03-10T09:30:54.366Z,97449.91
2023-03-10T09:32:57.402Z,97444.53
2023-03-10T09:34:59.845Z,97421.38
2023-03-10T09:37:02.681Z,97466.53
2023-03-10T09:39:08.024Z,97469.56
2023-03-10T09:41:33.353Z,97441.97
2023-03-10T09:43:40.394Z,97454.38
2023-03-10T09:45:55.659Z,97439.81
2023-03-10T09:48:32.940Z,97470.00
2023-03-10T09:50:53.569Z,97470.16
2023-03-10T09:53:04.402Z,97467.41
2023-03-10T09:55:21.311Z,97425.81
2023-03-10T09:57:24.211Z,97426.56
2023-03-10T09:59:39.110Z,97445.38
2023-03-10T10:01:45.152Z,97427.38
2023-03-10T10:03:53.357Z,97463.47
2023-03-10T10:05:57.999Z,97454.09
2023-03-10T10:08:06.613Z,97465.63
2023-03-10T10:10:24.926Z,97443.47
2023-03-10T10:12:27.844Z,97466.44
2023-03-10T10:14:31.590Z,97437.66
2023-03-10T10:17:06.636Z,97470.00
2023-03-10T10:19:23.065Z,97469.19
2023-03-10T10:21:42.504Z,97433.41
2023-03-10T10:23:50.680Z,97424.41
2023-03-10T10:25:53.746Z,97414.03
2023-03-10T10:27:56.852Z,97445.75
2023-03-10T10:29:59.440Z,97400.63
2023-03-10T10:32:13.865Z,97401.00
2023-03-10T10:34:22.771Z,97427.13
2023-03-10T10:36:28.374Z,97417.69
2023-03-10T10:38:33.166Z,97399.88
2023-03-10T10:40:48.075Z,97429.41
2023-03-10T10:42:56.064Z,97404.78
2023-03-10T10:45:02.764Z,97378.97
2023-03-10T10:47:05.336Z,97390.31
2023-03-10T10:49:22.728Z,97423.88
2023-03-10T10:51:29.306Z,97413.84
2023-03-10T10:53:36.374Z,97396.41
2023-03-10T10:55:39.171Z,97397.97
2023-03-10T10:57:46.361Z,97362.84
2023-03-10T10:59:49.089Z,97376.22
2023-03-10T11:01:56.110Z,97419.94
2023-03-10T11:04:07.389Z,97401.25
2023-03-10T11:06:29.471Z,97380.50
2023-03-10T11:08:39.163Z,97392.88
2023-03-10T11:10:42.895Z,97391.31
2023-03-10T11:13:07.393Z,97388.50
2023-03-10T11:15:09.788Z,97408.50
2023-03-10T11:17:25.301Z,97388.69
2023-03-10T11:19:53.694Z,97369.88
2023-03-10T11:22:07.723Z,97374.25
2023-03-10T11:24:37.477Z,97322.75
2023-03-10T11:26:59.577Z,97386.69
2023-03-10T11:29:25.692Z,97384.09
2023-03-10T11:32:02.311Z,97337.81
2023-03-10T11:34:18.082Z,97348.44
2023-03-10T11:36:55.063Z,97380.50
2023-03-10T11:39:12.602Z,97329.91
2023-03-10T11:41:20.881Z,97343.56
2023-03-10T11:43:29.938Z,97370.84
2023-03-10T11:45:49.071Z,97365.63
2023-03-10T11:48:03.347Z,97316.19
2023-03-10T11:50:15.700Z,97359.28
2023-03-10T11:52:21.302Z,97351.16
2023-03-10T11:54:31.495Z,97301.06
2023-03-10T11:56:33.879Z,97332.56
2023-03-10T11:59:03.540Z,97356.81
2023-03-10T12:01:09.073Z,97325.41
2023-03-10T12:03:16.173Z,97319.38
2023-03-10T12:05:24.436Z,97328.28
2023-03-10T12:07:29.848Z,97359.25
2023-03-10T12:09:37.246Z,97326.94
2023-03-10T12:11:40.394Z,97278.97
2023-03-10T12:13:50.094Z,97311.59
2023-03-10T12:15:57.205Z,97308.72
2023-03-10T12:18:00.431Z,97290.91
2023-03-10T12:20:14.276Z,97310.59
2023-03-10T12:22:21.318Z,97331.88
2023-03-10T12:24:44.247Z,97331.81
2023-03-10T12:26:47.497Z,97328.34
2023-03-10T12:29:30.514Z,97328.63
2023-03-10T12:31:35.643Z,97328.50
2023-03-10T12:33:45.268Z,97280.00
2023-03-10T12:35:51.030Z,97278.94
2023-03-10T12:38:31.182Z,97297.91
2023-03-10T12:40:53.019Z,97324.44
2023-03-10T12:42:55.470Z,97272.72
2023-03-10T12:45:43.626Z,97326.72
2023-03-10T12:47:55.542Z,97293.38
2023-03-10T12:50:03.405Z,97319.28
2023-03-10T12:52:09.789Z,97315.75
2023-03-10T12:54:31.629Z,97290.28
2023-03-10T12:56:40.528Z,97292.81
2023-03-10T12:59:05.296Z,97260.66
2023-03-10T13:01:12.503Z,97286.59
2023-03-10T13:03:45.484Z,97281.34
2023-03-10T13:06:21.317Z,97275.03
2023-03-10T13:08:48.681Z,97259.28
2023-03-10T13:10:56.748Z,97273.03
2023-03-10T13:13:06.085Z,97257.47
2023-03-10T13:15:28.531Z,97288.72
2023-03-10T13:17:33.234Z,97274.94
2023-03-10T13:19:37.607Z,97254.06
2023-03-10T13:21:41.171Z,97284.19
2023-03-10T13:23:44.012Z,97251.78
2023-03-10T13:25:58.685Z,97242.16
2023-03-10T13:28:10.953Z,97236.56
2023-03-10T13:30:13.896Z,97277.25
2023-03-10T13:32:20.341Z,97219.84
2023-03-10T13:34:28.401Z,97235.06
2023-03-10T13:36:33.960Z,97277.13
2023-03-10T13:38:42.388Z,97251.53
2023-03-10T13:41:09.556Z,97235.06
2023-03-10T13:43:42.332Z,97284.94
2023-03-10T13:45:45.138Z,97238.72
2023-03-10T13:47:47.800Z,97246.22
2023-03-10T13:50:03.103Z,97271.31
2023-03-10T13:52:08.805Z,97215.16
2023-03-10T13:54:24.166Z,97203.94
2023-03-10T13:56:34.805Z,97231.28
2023-03-10T13:58:38.686Z,97200.69
2023-03-10T14:00:42.011Z,97250.72
2023-03-10T14:02:47.364Z,97246.16
2023-03-10T14:04:54.137Z,97232.28
2023-03-10T14:07:07.483Z,97263.50
2023-03-10T14:09:15.125Z,97239.34
2023-03-10T14:11:41.513Z,97237.06
2023-03-10T14:13:45.776Z,97206.69
2023-03-10T14:15:57.938Z,97248.09
2023-03-10T14:18:09.436Z,97257.50
2023-03-10T14:20:24.858Z,97212.16
2023-03-10T14:22:39.336Z,97248.09
2023-03-10T14:24:41.826Z,97244.44
2023-03-10T14:26:44.883Z,97224.00
2023-03-10T14:28:47.416Z,97168.41
2023-03-10T14:30:49.719Z,97196.50
2023-03-10T14:32:53.742Z,97183.19
2023-03-10T14:34:56.605Z,97204.09
2023-03-10T14:36:59.401Z,97226.47
2023-03-10T14:39:02.149Z,97200.25
2023-03-10T14:41:05.550Z,97207.41
2023-03-10T14:43:12.723Z,97190.00
2023-03-10T14:45:25.561Z,97201.81
2023-03-10T14:47:28.231Z,97215.34
2023-03-10T14:49:31.191Z,97195.59
2023-03-10T14:51:36.293Z,97174.16
2023-03-10T14:53:39.024Z,97149.50
2023-03-10T14:55:43.873Z,97179.94
2023-03-10T14:57:48.568Z,97200.88
2023-03-10T14:59:51.076Z,97199.38
2023-03-10T15:01:54.568Z,97194.00
2023-03-10T15:03:57.225Z,97160.03
2023-03-10T15:05:59.576Z,97166.84
2023-03-10T15:08:04.213Z,97171.31
2023-03-10T15:10:11.436Z,97156.78
2023-03-10T15:12:18.339Z,97125.91
2023-03-10T15:14:21.504Z,97169.53
2023-03-10T15:16:24.258Z,97098.53
2023-03-10T15:18:27.579Z,97129.19
2023-03-10T15:20:30.547Z,97151.75
2023-03-10T15:22:33.048Z,97158.56
2023-03-10T15:24:35.832Z,97130.13
2023-03-10T15:26:38.470Z,97149.88
2023-03-10T15:28:40.971Z,97183.88
2023-03-10T15:30:44.134Z,97156.13
2023-03-10T15:32:47.367Z,97138.00
2023-03-10T15:34:49.989Z,97118.56
2023-03-10T15:36:52.678Z,97141.59
2023-03-10T15:38:55.529Z,97107.47
2023-03-10T15:40:58.521Z,97144.78
2023-03-10T15:43:01.288Z,97124.84
2023-03-10T15:45:05.715Z,97159.00
2023-03-10T15:47:09.369Z,97109.50
2023-03-10T15:49:11.923Z,97154.94
2023-03-10T15:51:17.824Z,97153.75
2023-03-10T15:53:20.555Z,97136.69
2023-03-10T15:55:24.586Z,97123.81
2023-03-10T15:57:27.210Z,97143.78
2023-03-10T15:59:29.645Z,97138.53
2023-03-10T16:01:32.195Z,97100.19
2023-03-10T16:03:37.168Z,97127.84
2023-03-10T16:05:48.087Z,97136.06
2023-03-10T16:07:51.279Z,97124.78
2023-03-10T16:09:53.953Z,97074.63
2023-03-10T16:11:57.134Z,97148.53
2023-03-10T16:13:59.752Z,97107.34
2023-03-10T16:16:13.464Z,97098.97
2023-03-10T16:18:16.540Z,97148.19
2023-03-10T16:20:19.903Z,97108.75
2023-03-10T16:22:23.362Z,97151.28
2023-03-10T16:24:26.223Z,97132.97
2023-03-10T16:26:29.549Z,97110.44
2023-03-10T16:28:31.989Z,97118.69
2023-03-10T16:30:34.407Z,97112.16
2023-03-10T16:32:37.212Z,97120.72
2023-03-10T16:34:39.445Z,97089.28
2023-03-10T16:36:42.298Z,97127.75
2023-03-10T16:38:44.940Z,97119.97
2023-03-10T16:40:51.001Z,97156.84
2023-03-10T16:42:53.710Z,97117.66
2023-03-10T16:44:57.269Z,97130.25
2023-03-10T16:46:59.844Z,97127.31
2023-03-10T16:49:03.018Z,97139.31
2023-03-10T16:51:24.115Z,97162.44
2023-03-10T16:53:26.894Z,97122.03
2023-03-10T16:55:29.440Z,97109.28
2023-03-10T16:57:31.756Z,97131.03
2023-03-10T16:59:34.474Z,97121.88
2023-03-10T17:01:37.037Z,97132.25
2023-03-10T17:03:42.802Z,97136.66
2023-03-10T17:05:45.565Z,97119.13
2023-03-10T17:07:55.736Z,97128.91
2023-03-10T17:09:59.509Z,97111.56
2023-03-10T17:12:02.978Z,97160.25
2023-03-10T17:14:09.130Z,97154.09
2023-03-10T17:16:13.480Z,97146.88
2023-03-10T17:18:17.608Z,97131.50
2023-03-10T17:20:20.368Z,97136.53
2023-03-10T17:22:24.117Z,97130.13
2023-03-10T17:24:27.849Z,97131.72
2023-03-10T17:26:30.683Z,97147.28
2023-03-10T17:28:33.639Z,97126.94
2023-03-10T17:30:39.412Z,97124.75
2023-03-10T17:32:42.181Z,97142.69
2023-03-10T17:34:44.830Z,97170.00
2023-03-10T17:36:50.636Z,97135.91
2023-03-10T17:38:55.401Z,97109.19
2023-03-10T17:40:58.352Z,97103.03
2023-03-10T17:43:17.268Z,97132.72
2023-03-10T17:45:23.912Z,97100.25
2023-03-10T17:47:26.801Z,97110.97
2023-03-10T17:49:29.727Z,97086.66
2023-03-10T17:51:32.317Z,97134.50
2023-03-10T17:53:35.429Z,97134.31
2023-03-10T17:55:37.934Z,97098.97
2023-03-10T17:57:40.915Z,97078.63
2023-03-10T17:59:43.649Z,97109.97
2023-03-10T18:01:46.536Z,97146.63
2023-03-10T18:03:49.569Z,97107.53
2023-03-10T18:05:52.079Z,97116.09
2023-03-10T18:07:56.035Z,97088.16
2023-03-10T18:09:58.707Z,97094.56
2023-03-10T18:12:01.455Z,97100.50
2023-03-10T18:14:05.448Z,97108.53
2023-03-10T18:16:14.765Z,97123.84
2023-03-10T18:18:17.242Z,97108.09
2023-03-10T18:20:19.875Z,97099.66
2023-03-10T18:22:23.349Z,97125.84
2023-03-10T18:24:26.311Z,97101.31
2023-03-10T18:26:34.068Z,97112.09
2023-03-10T18:28:37.325Z,97103.09
2023-03-10T18:30:46.361Z,97097.72
2023-03-10T18:32:49.315Z,97132.41
2023-03-10T18:34:51.726Z,97082.69
2023-03-10T18:36:54.280Z,97105.69
2023-03-10T18:38:57.101Z,97100.03
2023-03-10T18:41:01.112Z,97102.22
2023-03-10T18:43:03.392Z,97105.81
2023-03-10T18:45:07.846Z,97101.81
2023-03-10T18:47:10.315Z,97112.22
2023-03-10T18:49:12.721Z,97149.34
2023-03-10T18:51:15.157Z,97092.66
2023-03-10T18:53:17.447Z,97100.63
2023-03-10T18:55:19.994Z,97134.19
2023-03-10T18:57:22.416Z,97103.22
2023-03-10T18:59:25.354Z,97130.19
2023-03-10T19:01:28.324Z,97055.34
2023-03-10T19:03:31.469Z,97099.22
2023-03-10T19:05:34.237Z,97126.78
2023-03-10T19:07:38.066Z,97097.41
2023-03-10T19:09:42.356Z,97093.41
2023-03-10T19:11:46.166Z,97093.41
2023-03-10T19:13:48.684Z,97143.13
2023-03-10T19:15:51.193Z,97141.75
2023-03-10T19:17:53.894Z,97061.09
2023-03-10T19:19:56.366Z,97092.44
2023-03-10T19:21:58.744Z,97092.81
2023-03-10T19:24:01.609Z,97074.88
2023-03-10T19:26:04.224Z,97100.22
2023-03-10T19:28:07.898Z,97099.19
2023-03-10T19:30:14.385Z,97089.00
2023-03-10T19:32:17.496Z,97068.50
2023-03-10T19:34:21.030Z,97084.28
2023-03-10T19:36:26.693Z,97091.84
2023-03-10T19:38:29.564Z,97052.31
2023-03-10T19:40:32.402Z,97073.91
2023-03-10T19:42:37.459Z,97056.75
2023-03-10T19:44:39.871Z,97071.34
2023-03-10T19:46:42.199Z,97088.88
2023-03-10T19:48:45.203Z,97053.16
2023-03-10T19:50:54.947Z,97095.31
2023-03-10T19:52:58.618Z,97072.75
2023-03-10T19:55:01.546Z,97094.69
2023-03-10T19:57:05.107Z,97036.06
2023-03-10T19:59:07.563Z,97082.78
2023-03-10T20:01:18.546Z,97111.09
2023-03-10T20:03:21.268Z,97112.31
2023-03-10T20:05:25.716Z,97079.59
2023-03-10T20:07:28.287Z,97077.16
2023-03-10T20:09:31.296Z,97087.16
2023-03-10T20:11:33.691Z,97073.38
2023-03-10T20:13:36.353Z,97052.00
2023-03-10T20:15:39.323Z,97079.13
2023-03-10T20:17:41.905Z,97084.72
2023-03-10T20:19:44.362Z,97076.50
2023-03-10T20:21:47.135Z,97087.91
2023-03-10T20:23:50.016Z,97063.34
2023-03-10T20:26:10.204Z,97089.78
2023-03-10T20:28:13.637Z,97067.78
2023-03-10T20:30:19.691Z,97052.16
2023-03-10T20:32:21.998Z,97068.84
2023-03-10T20:34:26.204Z,97078.78
2023-03-10T20:36:29.152Z,97071.97
2023-03-10T20:38:32.005Z,97078.50
2023-03-10T20:40:34.414Z,97070.03
2023-03-10T20:42:37.023Z,97062.63
2023-03-10T20:44:40.366Z,97051.59
2023-03-10T20:46:44.616Z,97064.16
2023-03-10T20:48:50.973Z,97048.13
2023-03-10T20:50:57.653Z,97082.59
2023-03-10T20:53:01.038Z,97099.94
2023-03-10T20:55:05.141Z,97071.34
2023-03-10T20:57:08.842Z,97027.97
2023-03-10T20:59:11.490Z,97052.50
2023-03-10T21:01:19.921Z,97070.38
2023-03-10T21:03:22.436Z,97057.97
2023-03-10T21:05:27.516Z,97099.78
2023-03-10T21:07:30.243Z,97045.78
2023-03-10T21:09:32.764Z,97061.91
2023-03-10T21:11:35.979Z,97104.22
2023-03-10T21:13:38.740Z,97041.25
2023-03-10T21:15:41.455Z,97061.50
2023-03-10T21:17:44.390Z,97049.72
2023-03-10T21:19:47.007Z,97073.88
2023-03-10T21:21:50.052Z,97067.03
2023-03-10T21:23:52.619Z,97076.97
2023-03-10T21:25:55.024Z,97080.13
2023-03-10T21:28:00.085Z,97055.44
2023-03-10T21:30:09.679Z,97063.78
2023-03-10T21:32:12.427Z,97003.91
2023-03-10T21:34:14.897Z,97088.47
2023-03-10T21:36:22.176Z,97046.97
2023-03-10T21:38:24.709Z,97063.06
2023-03-10T21:40:27.648Z,97016.69
2023-03-10T21:42:30.073Z,97056.50
2023-03-10T21:44:32.862Z,97047.53
2023-03-10T21:46:35.304Z,97038.00
2023-03-10T21:48:38.046Z,97034.19
2023-03-10T21:50:40.813Z,97057.34
2023-03-10T21:52:43.650Z,97044.47
2023-03-10T21:54:46.033Z,97021.47
2023-03-10T21:56:48.826Z,96988.59
2023-03-10T21:58:51.126Z,97033.13
2023-03-10T22:00:56.082Z,97019.28
2023-03-10T22:02:59.562Z,97022.75
2023-03-10T22:05:01.996Z,97014.41
2023-03-10T22:07:04.679Z,97026.91
2023-03-10T22:09:07.555Z,96994.78
2023-03-10T22:11:10.765Z,97040.00
2023-03-10T22:13:13.309Z,97030.03
2023-03-10T22:15:20.511Z,96989.69
2023-03-10T22:17:24.954Z,97009.16
2023-03-10T22:19:27.726Z,96999.13
2023-03-10T22:21:31.113Z,97012.09
2023-03-10T22:23:33.693Z,96982.69
2023-03-10T22:25:36.612Z,97057.28
2023-03-10T22:27:39.226Z,97011.72
2023-03-10T22:29:41.655Z,97001.69
2023-03-10T22:31:44.088Z,97032.06
2023-03-10T22:33:46.536Z,97044.22
2023-03-10T22:35:52.481Z,97030.47
2023-03-10T22:37:55.128Z,97027.38
2023-03-10T22:39:57.529Z,97008.88
2023-03-10T22:41:59.860Z,97007.28
2023-03-10T22:44:02.272Z,97020.06
2023-03-10T22:46:16.983Z,97023.16
2023-03-10T22:48:19.304Z,97031.53
2023-03-10T22:50:25.780Z,97014.09
2023-03-10T22:52:27.914Z,97025.28
2023-03-10T22:54:30.147Z,97018.16
2023-03-10T22:56:32.585Z,97024.72
2023-03-10T22:58:34.934Z,97013.00
2023-03-10T23:00:38.686Z,97034.38
2023-03-10T23:02:41.999Z,96994.72
2023-03-10T23:04:44.895Z,96955.03
2023-03-10T23:06:47.215Z,97026.28
2023-03-10T23:08:49.643Z,97032.06
2023-03-10T23:10:52.898Z,97027.72
2023-03-10T23:12:56.409Z,97019.72
2023-03-10T23:14:59.409Z,97015.09
2023-03-10T23:17:01.942Z,96999.19
2023-03-10T23:19:08.388Z,96995.22
2023-03-10T23:21:10.946Z,96985.25
2023-03-10T23:23:15.073Z,96989.78
2023-03-10T23:25:24.593Z,97006.47
2023-03-10T23:27:27.109Z,96981.25
2023-03-10T23:29:29.483Z,97008.88
2023-03-10T23:31:31.913Z,96960.50
2023-03-10T23:33:34.081Z,96990.06
2023-03-10T23:35:36.695Z,96971.50
2023-03-10T23:37:38.993Z,96982.06
2023-03-10T23:39:41.929Z,96993.84
2023-03-10T23:41:44.172Z,96961.47
2023-03-10T23:43:46.770Z,96990.06
2023-03-10T23:45:49.926Z,96983.66
2023-03-10T23:47:52.791Z,96987.66
2023-03-10T23:49:56.380Z,97033.19
2023-03-10T23:51:59.129Z,96991.28
2023-03-10T23:54:01.917Z,96990.50
2023-03-10T23:56:04.442Z,96967.75
2023-03-10T23:58:08.382Z,97004.44
